Time;durP1;ratioP1;P1;durP2;ratioP2;P2;SDS_P1;SDS_P2;PMS_P1;PMS_P2;Temp;Humidity;BMP_temperature;BMP_pressure;BME280_temperature;BME280_humidity;BME280_pressure;Samples;Min_cycle;Max_cycle;Signal;HPM_P1;HPM_P2
2023/06/04 00:00:32;;;;;;;4.25;1.63;;;;;;;18.33;38.38;99864.28;1087411;54;20027;-83
2023/06/04 00:01:36;;;;;;;5.88;2.00;;;;;;;18.11;38.89;99855.44;1087382;54;20046;-83
2023/06/04 00:02:37;;;;;;;3.83;1.90;;;;;;;18.13;38.73;99859.63;1087203;47;20026;-83
2023/06/04 00:03:44;;;;;;;4.70;1.83;;;;;;;18.07;38.98;99863.97;1087111;47;20034;-83
2023/06/04 00:04:45;;;;;;;3.63;1.67;;;;;;;18.13;38.74;99865.03;1087202;47;20057;-84
2023/06/04 00:05:49;;;;;;;3.75;1.90;;;;;;;18.12;38.69;99866.06;1087172;54;20031;-84
2023/06/04 00:06:51;;;;;;;4.03;1.70;;;;;;;17.98;38.84;99861.59;1087205;54;20094;-84
2023/06/04 00:07:54;;;;;;;4.57;2.15;;;;;;;17.98;38.97;99872.41;1087434;54;20060;-82
2023/06/04 00:08:56;;;;;;;5.78;1.80;;;;;;;18.02;38.98;99862.88;1087195;47;20037;-84
2023/06/04 00:10:00;;;;;;;4.03;1.60;;;;;;;17.96;38.82;99863.63;1087171;54;20035;-85
2023/06/04 00:11:01;;;;;;;4.57;1.83;;;;;;;17.85;39.29;99865.00;1087312;54;20037;-83
2023/06/04 00:12:05;;;;;;;4.15;1.73;;;;;;;17.79;39.10;99858.53;1087023;47;20038;-86
2023/06/04 00:13:06;;;;;;;3.78;1.92;;;;;;;17.86;39.13;99858.56;1087214;54;20045;-82
2023/06/04 00:14:10;;;;;;;3.63;1.70;;;;;;;17.92;38.69;99868.59;1087446;54;20034;-84
2023/06/04 00:15:14;;;;;;;4.70;1.90;;;;;;;17.84;38.85;99861.50;1087177;47;20086;-85
2023/06/04 00:16:18;;;;;;;4.07;1.70;;;;;;;17.85;39.07;99863.16;1087100;54;20034;-84
2023/06/04 00:17:19;;;;;;;4.25;1.98;;;;;;;17.78;39.13;99862.25;1087073;47;20034;-84
2023/06/04 00:18:23;;;;;;;3.35;1.70;;;;;;;17.86;38.83;99859.41;1087106;46;20054;-84
2023/06/04 00:19:27;;;;;;;4.20;1.80;;;;;;;17.61;39.34;99861.72;1087248;54;20030;-81
2023/06/04 00:20:31;;;;;;;4.20;1.75;;;;;;;17.70;39.23;99865.09;1087205;54;20048;-83
2023/06/04 00:21:33;;;;;;;7.13;1.90;;;;;;;17.54;39.51;99861.66;1087519;39;20348;-81
2023/06/04 00:22:37;;;;;;;4.13;1.65;;;;;;;17.55;39.57;99863.34;1087343;54;20034;-81
2023/06/04 00:23:38;;;;;;;3.88;1.85;;;;;;;17.53;39.41;99860.00;1087470;54;20030;-82
2023/06/04 00:24:42;;;;;;;4.20;1.70;;;;;;;17.59;39.39;99863.78;1087132;47;20118;-83
2023/06/04 00:25:43;;;;;;;4.30;1.80;;;;;;;17.39;39.50;99861.75;1087099;54;20034;-84
2023/06/04 00:26:48;;;;;;;3.72;1.70;;;;;;;17.44;39.48;99863.88;1087069;54;20030;-83
2023/06/04 00:27:49;;;;;;;3.85;1.85;;;;;;;17.50;39.30;99860.38;1087042;54;20030;-83
2023/06/04 00:28:53;;;;;;;7.53;1.83;;;;;;;17.33;39.74;99853.56;1087067;54;20042;-80
2023/06/04 00:29:55;;;;;;;5.18;1.50;;;;;;;17.44;39.27;99866.56;1087176;47;20048;-82
2023/06/04 00:30:59;;;;;;;5.15;1.75;;;;;;;17.45;39.40;99868.25;1087119;47;20056;-82
2023/06/04 00:32:00;;;;;;;5.13;1.63;;;;;;;17.54;39.21;99866.22;1086911;54;20048;-82
2023/06/04 00:33:04;;;;;;;4.05;1.88;;;;;;;17.42;39.13;99858.66;1087424;54;20057;-79
2023/06/04 00:34:05;;;;;;;5.03;1.75;;;;;;;17.19;39.52;99861.56;1087177;54;20032;-81
2023/06/04 00:35:12;;;;;;;3.38;1.52;;;;;;;17.34;39.29;99861.47;1087245;47;20040;-82
2023/06/04 00:36:14;;;;;;;3.78;1.73;;;;;;;17.38;39.29;99862.78;1087171;54;20090;-81
2023/06/04 00:37:18;;;;;;;4.78;2.00;;;;;;;17.06;40.03;99869.53;1087140;47;20039;-77
2023/06/04 00:38:19;;;;;;;4.90;2.17;;;;;;;16.99;39.93;99869.44;1087161;54;20034;-83
2023/06/04 00:39:23;;;;;;;6.18;1.67;;;;;;;16.95;39.80;99870.88;1087360;54;20041;-82
2023/06/04 00:40:24;;;;;;;4.45;1.80;;;;;;;17.09;39.58;99863.75;1087173;47;20027;-82
2023/06/04 00:41:28;;;;;;;3.90;1.88;;;;;;;17.06;39.65;99869.53;1087059;54;20041;-83
2023/06/04 00:42:29;;;;;;;6.38;2.15;;;;;;;16.93;39.90;99868.34;1087039;47;20052;-82
2023/06/04 00:43:35;;;;;;;3.83;1.60;;;;;;;16.78;40.03;99870.22;1086993;54;20094;-82
2023/06/04 00:44:37;;;;;;;3.65;1.48;;;;;;;16.83;39.91;99876.72;1087136;47;20023;-78
2023/06/04 00:45:40;;;;;;;4.47;1.70;;;;;;;16.75;40.04;99876.00;1087210;54;20034;-80
2023/06/04 00:46:45;;;;;;;4.40;1.70;;;;;;;16.60;40.30;99876.00;1087127;47;20026;-80
2023/06/04 00:47:49;;;;;;;5.45;1.75;;;;;;;16.57;40.31;99882.63;1087097;47;20046;-82
2023/06/04 00:48:50;;;;;;;5.05;1.60;;;;;;;16.57;40.41;99874.53;1087032;54;20038;-80
2023/06/04 00:49:59;;;;;;;5.63;2.03;;;;;;;16.43;40.55;99880.81;1087366;54;20045;-82
2023/06/04 00:51:04;;;;;;;3.80;1.50;;;;;;;16.42;40.88;99884.53;1087065;47;20094;-78
2023/06/04 00:52:08;;;;;;;5.03;2.00;;;;;;;16.42;40.62;99881.81;1087077;47;20031;-79
2023/06/04 00:53:10;;;;;;;5.45;1.83;;;;;;;16.32;40.98;99882.94;1087114;47;20031;-83
2023/06/04 00:54:15;;;;;;;4.80;1.90;;;;;;;16.32;40.74;99890.19;1087150;54;20086;-81
2023/06/04 00:55:17;;;;;;;4.05;1.60;;;;;;;16.20;40.86;99882.53;1087000;54;20022;-81
2023/06/04 00:56:22;;;;;;;6.70;1.73;;;;;;;16.11;41.29;99880.97;1087030;54;20101;-80
2023/06/04 00:57:23;;;;;;;6.57;1.90;;;;;;;16.13;41.07;99883.50;1087263;54;20053;-79
2023/06/04 00:58:27;;;;;;;4.90;1.73;;;;;;;16.18;41.23;99883.75;1087095;47;20030;-80
2023/06/04 00:59:31;;;;;;;5.55;1.88;;;;;;;16.16;41.06;99881.25;1087078;54;20042;-83
2023/06/04 01:00:35;;;;;;;3.55;1.60;;;;;;;16.16;40.91;99875.00;1086912;47;20022;-82
2023/06/04 01:01:45;;;;;;;5.32;1.75;;;;;;;16.04;41.24;99882.72;1087060;54;20086;-79
2023/06/04 01:02:53;;;;;;;5.63;2.03;;;;;;;15.99;41.58;99883.28;1087414;54;20030;-80
2023/06/04 01:03:55;;;;;;;4.18;1.80;;;;;;;15.97;41.27;99888.00;1087081;54;20087;-84
2023/06/04 01:05:08;;;;;;;5.28;1.55;;;;;;;15.88;41.31;99889.97;1087084;54;20054;-83
2023/06/04 01:06:21;;;;;;;4.18;1.77;;;;;;;15.93;41.18;99891.25;1087096;54;20057;-81
2023/06/04 01:07:27;;;;;;;4.47;2.03;;;;;;;15.91;41.44;99894.16;1087302;54;20057;-80
2023/06/04 01:08:28;;;;;;;3.70;1.75;;;;;;;15.93;41.23;99896.66;1087095;54;20068;-82
2023/06/04 01:09:33;;;;;;;6.00;1.90;;;;;;;15.91;41.47;99899.53;1087159;54;20098;-79
2023/06/04 01:10:34;;;;;;;5.78;1.67;;;;;;;15.90;41.40;99895.16;1087236;54;20045;-84
2023/06/04 01:11:40;;;;;;;3.70;1.73;;;;;;;15.88;41.27;99898.06;1086209;47;20038;-81
2023/06/04 01:12:43;;;;;;;3.83;1.70;;;;;;;15.95;41.39;99895.47;1086508;47;20033;-83
2023/06/04 01:13:46;;;;;;;5.10;1.98;;;;;;;15.86;41.22;99883.91;1086351;54;20034;-83
2023/06/04 01:14:48;;;;;;;5.82;1.70;;;;;;;15.89;41.34;99888.94;1086440;47;20038;-83
2023/06/04 01:15:52;;;;;;;5.32;1.77;;;;;;;15.90;41.25;99887.09;1086874;54;20657;-84
2023/06/04 01:17:01;;;;;;;4.88;1.70;;;;;;;15.88;41.06;99889.97;1086763;54;20043;-85
2023/06/04 01:18:06;;;;;;;4.70;1.55;;;;;;;15.86;41.12;99897.41;1087272;54;20490;-84
2023/06/04 01:19:21;;;;;;;4.97;1.60;;;;;;;15.90;41.44;99892.47;1086913;47;20052;-84
2023/06/04 01:20:32;;;;;;;5.85;1.48;;;;;;;15.91;41.06;99894.16;1086911;47;20030;-81
2023/06/04 01:21:38;;;;;;;4.30;1.30;;;;;;;15.86;41.22;99897.41;1087148;54;20046;-84
2023/06/04 01:22:49;;;;;;;6.00;1.60;;;;;;;15.79;41.21;99907.22;1086602;54;20106;-81
2023/06/04 01:23:58;;;;;;;3.88;1.70;;;;;;;15.86;41.27;99901.97;1087441;54;20042;-82
2023/06/04 01:25:09;;;;;;;3.20;1.33;;;;;;;15.85;41.34;99903.81;1087249;54;20038;-82
2023/06/04 01:26:11;;;;;;;4.75;1.40;;;;;;;15.80;41.14;99897.25;1086879;47;20045;-84
2023/06/04 01:27:17;;;;;;;6.35;1.83;;;;;;;15.79;41.30;99893.72;1086888;51;20034;-85
2023/06/04 01:28:20;;;;;;;5.75;2.38;;;;;;;15.76;41.23;99902.19;1086950;47;20023;-84
2023/06/04 01:29:30;;;;;;;5.53;1.98;;;;;;;15.80;41.35;99894.56;1086939;47;20035;-82
2023/06/04 01:30:32;;;;;;;6.18;1.73;;;;;;;15.72;41.58;99898.19;1086783;47;20031;-84
2023/06/04 01:31:36;;;;;;;4.60;1.80;;;;;;;15.68;41.39;99913.84;1086942;54;20516;-83
2023/06/04 01:32:38;;;;;;;6.25;1.42;;;;;;;15.68;41.49;99903.06;1087596;39;20519;-84
2023/06/04 01:33:42;;;;;;;4.90;1.25;;;;;;;15.74;41.42;99898.81;1086559;54;20102;-82
2023/06/04 01:34:46;;;;;;;4.00;1.50;;;;;;;15.72;41.18;99899.00;1086347;47;20019;-82
2023/06/04 01:35:50;;;;;;;4.82;1.65;;;;;;;15.70;41.41;99903.75;1086916;54;20042;-85
2023/06/04 01:36:54;;;;;;;5.80;1.65;;;;;;;15.78;41.28;99901.97;1087294;54;20056;-86
2023/06/04 01:37:58;;;;;;;3.67;1.48;;;;;;;15.82;41.30;99896.03;1087561;54;20034;-84
2023/06/04 01:39:00;;;;;;;4.75;1.88;;;;;;;15.88;40.88;99902.59;1087351;47;20026;-85
2023/06/04 01:40:04;;;;;;;5.07;1.35;;;;;;;15.77;41.27;99903.03;1087039;47;20086;-83
2023/06/04 01:41:06;;;;;;;3.92;1.42;;;;;;;15.75;41.20;99905.88;1087143;54;20039;-85
2023/06/04 01:42:11;;;;;;;4.25;1.40;;;;;;;15.72;41.20;99906.28;1086915;47;20026;-85
2023/06/04 01:43:12;;;;;;;4.07;1.83;;;;;;;15.65;41.39;99900.75;1086902;54;20038;-83
2023/06/04 01:44:16;;;;;;;3.63;1.60;;;;;;;15.63;41.64;99905.50;1087259;47;20022;-83
2023/06/04 01:45:17;;;;;;;3.85;1.52;;;;;;;15.62;41.47;99903.00;1087575;47;20048;-85
2023/06/04 01:46:21;;;;;;;5.50;1.77;;;;;;;15.54;41.44;99904.72;1087431;46;20026;-83
2023/06/04 01:47:22;;;;;;;3.78;1.33;;;;;;;15.54;41.43;99903.88;1087694;54;20871;-80
2023/06/04 01:48:29;;;;;;;4.82;1.35;;;;;;;15.47;41.82;99902.94;1087418;47;20038;-84
2023/06/04 01:49:30;;;;;;;4.80;1.35;;;;;;;15.49;41.67;99909.81;1087208;47;20031;-83
2023/06/04 01:50:34;;;;;;;4.60;1.55;;;;;;;15.51;41.47;99910.47;1087479;54;20040;-83
2023/06/04 01:51:36;;;;;;;3.30;1.67;;;;;;;15.67;41.07;99904.13;1087762;47;20034;-84
2023/06/04 01:52:43;;;;;;;3.95;1.38;;;;;;;15.66;41.14;99907.84;1087629;54;20037;-82
2023/06/04 01:53:44;;;;;;;3.90;1.35;;;;;;;15.59;41.19;99913.09;1087494;54;20038;-83
2023/06/04 01:54:48;;;;;;;3.40;1.52;;;;;;;15.59;41.23;99906.84;1087417;47;20034;-82
2023/06/04 01:55:50;;;;;;;4.40;1.40;;;;;;;15.57;41.36;99911.63;1087007;54;20105;-85
2023/06/04 01:56:53;;;;;;;3.50;1.50;;;;;;;15.67;40.96;99906.81;1087336;47;20030;-83
2023/06/04 01:57:54;;;;;;;3.42;1.40;;;;;;;15.72;40.82;99906.28;1087444;47;20026;-83
2023/06/04 01:58:58;;;;;;;6.00;1.42;;;;;;;15.67;41.05;99909.50;1088092;39;20543;-82
2023/06/04 01:59:59;;;;;;;3.72;1.33;;;;;;;15.68;40.99;99905.78;1087370;47;20027;-83
2023/06/04 02:01:04;;;;;;;3.70;1.67;;;;;;;15.57;41.24;99900.84;1087002;47;20048;-81
2023/06/04 02:02:06;;;;;;;3.17;1.23;;;;;;;15.55;41.75;99905.56;1086842;47;20097;-82
2023/06/04 02:03:10;;;;;;;5.28;1.52;;;;;;;15.53;41.77;99910.28;1086289;47;20053;-85
2023/06/04 02:04:11;;;;;;;5.25;1.52;;;;;;;15.45;41.99;99903.09;1087447;47;20033;-82
2023/06/04 02:05:15;;;;;;;10.02;1.60;;;;;;;15.48;41.93;99910.81;1087531;47;20061;-84
2023/06/04 02:06:16;;;;;;;3.78;1.40;;;;;;;15.41;42.01;99905.31;1087362;47;20026;-83
2023/06/04 02:07:23;;;;;;;3.72;1.48;;;;;;;15.49;42.27;99906.28;1087454;46;20054;-84
2023/06/04 02:08:27;;;;;;;4.10;1.58;;;;;;;15.37;42.43;99909.41;1086966;47;20089;-85
2023/06/04 02:09:31;;;;;;;3.63;1.42;;;;;;;15.37;42.27;99908.53;1087302;54;20544;-83
2023/06/04 02:10:32;;;;;;;3.50;1.38;;;;;;;15.46;42.14;99907.47;1087574;47;20044;-83
2023/06/04 02:11:36;;;;;;;4.13;1.90;;;;;;;15.41;42.09;99905.31;1087225;47;20056;-81
2023/06/04 02:12:38;;;;;;;3.47;1.38;;;;;;;15.40;42.25;99908.19;1087033;47;20060;-83
2023/06/04 02:13:42;;;;;;;3.97;1.35;;;;;;;15.48;41.95;99907.31;1087430;54;20077;-85
2023/06/04 02:14:45;;;;;;;3.90;1.35;;;;;;;15.59;41.87;99912.25;1087363;47;20056;-80
2023/06/04 02:15:49;;;;;;;3.42;1.67;;;;;;;15.52;41.67;99900.53;1087420;54;20022;-84
2023/06/04 02:16:51;;;;;;;2.85;1.15;;;;;;;15.49;41.73;99907.13;1087406;47;20109;-85
2023/06/04 02:17:58;;;;;;;3.88;1.50;;;;;;;15.39;41.67;99909.22;1086675;47;20038;-78
2023/06/04 02:18:59;;;;;;;5.95;1.75;;;;;;;15.40;41.87;99914.41;1086875;54;20662;-86
2023/06/04 02:20:03;;;;;;;2.85;1.20;;;;;;;15.54;41.65;99914.66;1087664;47;20015;-84
2023/06/04 02:21:05;;;;;;;2.95;1.20;;;;;;;15.62;41.30;99909.19;1087583;47;20026;-85
2023/06/04 02:22:09;;;;;;;3.65;1.50;;;;;;;15.64;41.24;99909.88;1087301;47;20030;-79
2023/06/04 02:23:10;;;;;;;5.18;1.45;;;;;;;15.50;41.37;99910.63;1087075;47;20065;-84
2023/06/04 02:24:17;;;;;;;3.75;1.27;;;;;;;15.47;41.48;99913.72;1087082;47;20046;-82
2023/06/04 02:25:18;;;;;;;6.68;1.63;;;;;;;15.47;41.29;99911.03;1087602;54;20031;-83
2023/06/04 02:26:23;;;;;;;3.13;1.27;;;;;;;15.48;41.51;99916.22;1087610;47;20069;-83
2023/06/04 02:27:24;;;;;;;3.72;1.20;;;;;;;15.52;41.41;99912.16;1087260;47;20456;-84
2023/06/04 02:28:28;;;;;;;5.70;1.50;;;;;;;15.47;41.24;99913.72;1087340;54;20052;-85
2023/06/04 02:29:29;;;;;;;4.30;1.40;;;;;;;15.53;41.18;99903.06;1089465;39;20833;-84
2023/06/04 02:30:33;;;;;;;10.07;2.05;;;;;;;15.55;41.56;99910.94;1087272;47;20056;-80
2023/06/04 02:31:34;;;;;;;5.57;1.70;;;;;;;15.47;41.82;99903.75;1087258;54;20026;-84
2023/06/04 02:32:39;;;;;;;4.60;1.42;;;;;;;15.39;42.45;99912.75;1087289;47;20031;-83
2023/06/04 02:33:40;;;;;;;4.57;1.50;;;;;;;15.21;42.75;99914.91;1087242;47;20023;-84
2023/06/04 02:34:44;;;;;;;4.45;1.50;;;;;;;15.30;42.67;99903.06;1087471;54;20034;-84
2023/06/04 02:35:48;;;;;;;2.92;1.25;;;;;;;15.34;42.57;99908.94;1087554;51;20754;-85
2023/06/04 02:36:50;;;;;;;3.83;1.13;;;;;;;15.40;42.45;99914.41;1087604;47;20022;-83
2023/06/04 02:37:56;;;;;;;4.22;1.40;;;;;;;15.38;42.62;99913.78;1087252;54;20031;-83
2023/06/04 02:38:57;;;;;;;4.00;1.10;;;;;;;15.28;43.10;99913.16;1087554;54;20037;-84
2023/06/04 02:40:04;;;;;;;4.30;1.38;;;;;;;15.26;42.93;99910.63;1087603;54;20038;-85
2023/06/04 02:41:05;;;;;;;7.18;1.90;;;;;;;15.26;42.96;99910.63;1087151;47;20031;-80
2023/06/04 02:42:10;;;;;;;5.30;1.20;;;;;;;15.24;42.55;99903.75;1086770;47;20086;-84
2023/06/04 02:43:11;;;;;;;4.30;1.77;;;;;;;15.20;42.78;99913.22;1087150;47;20026;-85
2023/06/04 02:44:15;;;;;;;6.50;1.48;;;;;;;15.16;43.04;99918.09;1087357;54;20034;-84
2023/06/04 02:45:16;;;;;;;5.25;1.60;;;;;;;15.10;42.99;99908.91;1086874;47;20037;-81
2023/06/04 02:46:20;;;;;;;3.15;1.40;;;;;;;15.18;42.58;99905.31;1086568;54;20042;-83
2023/06/04 02:47:21;;;;;;;3.47;1.48;;;;;;;15.18;42.48;99909.88;1087030;47;20126;-85
2023/06/04 02:48:25;;;;;;;3.53;1.33;;;;;;;15.18;42.52;99912.56;1087061;47;20073;-84
2023/06/04 02:49:26;;;;;;;4.38;1.35;;;;;;;15.17;42.52;99914.41;1087375;54;20038;-84
2023/06/04 02:50:30;;;;;;;4.50;1.63;;;;;;;15.15;42.78;99911.06;1087390;54;20970;-84
2023/06/04 02:51:32;;;;;;;3.97;1.73;;;;;;;15.15;42.89;99910.22;1086880;47;20078;-84
2023/06/04 02:52:36;;;;;;;4.03;1.08;;;;;;;15.10;43.04;99911.59;1087475;54;20034;-82
2023/06/04 02:53:37;;;;;;;4.55;1.35;;;;;;;15.06;43.14;99915.66;1086995;47;20038;-83
2023/06/04 02:54:41;;;;;;;4.15;1.20;;;;;;;15.02;43.15;99913.50;1087527;47;20113;-84
2023/06/04 02:55:45;;;;;;;4.07;1.20;;;;;;;15.05;43.01;99916.66;1087332;47;20034;-84
2023/06/04 02:56:49;;;;;;;4.30;1.45;;;;;;;14.96;43.15;99913.19;1087117;54;20031;-85
2023/06/04 02:57:51;;;;;;;4.40;1.20;;;;;;;15.04;42.95;99914.97;1087348;46;20022;-80
2023/06/04 02:58:56;;;;;;;4.88;1.27;;;;;;;14.97;43.33;99917.53;1087318;47;20035;-84
2023/06/04 02:59:57;;;;;;;3.22;1.25;;;;;;;14.98;43.16;99921.09;1087005;47;20026;-82
2023/06/04 03:01:01;;;;;;;3.15;1.23;;;;;;;15.10;43.01;99922.38;1088890;39;20687;-82
2023/06/04 03:02:02;;;;;;;4.18;1.60;;;;;;;14.93;43.24;99920.75;1087177;46;20039;-82
2023/06/04 03:03:06;;;;;;;3.00;1.27;;;;;;;14.98;43.31;99918.41;1087670;47;20022;-83
2023/06/04 03:04:09;;;;;;;3.90;1.48;;;;;;;14.93;43.30;99913.53;1087589;47;20042;-84
2023/06/04 03:05:17;;;;;;;4.50;1.58;;;;;;;14.98;43.28;99908.44;1087462;47;20038;-83
2023/06/04 03:06:20;;;;;;;4.68;1.60;;;;;;;14.89;43.09;99911.38;1087202;47;20030;-82
2023/06/04 03:07:23;;;;;;;4.80;1.55;;;;;;;14.91;43.02;99909.34;1087560;47;21135;-83
2023/06/04 03:08:25;;;;;;;5.40;1.30;;;;;;;14.83;43.27;99910.22;1087507;54;20098;-84
2023/06/04 03:09:29;;;;;;;5.20;1.63;;;;;;;14.96;42.95;99907.81;1087920;47;20052;-84
2023/06/04 03:10:31;;;;;;;3.67;1.40;;;;;;;14.99;43.08;99912.00;1087711;47;20033;-82
2023/06/04 03:11:37;;;;;;;3.85;1.10;;;;;;;14.89;42.87;99909.50;1087828;47;20011;-82
2023/06/04 03:12:38;;;;;;;5.00;1.38;;;;;;;14.85;43.43;99910.03;1087239;47;20095;-85
2023/06/04 03:13:43;;;;;;;4.78;1.23;;;;;;;14.78;43.21;99908.06;1087300;54;20030;-86
2023/06/04 03:14:44;;;;;;;3.55;1.42;;;;;;;14.79;43.10;99916.97;1087692;54;20030;-81
2023/06/04 03:15:49;;;;;;;4.50;1.33;;;;;;;14.74;43.18;99912.09;1087570;47;20031;-85
2023/06/04 03:16:51;;;;;;;4.10;1.30;;;;;;;14.67;43.55;99908.44;1087528;47;20030;-83
2023/06/04 03:17:55;;;;;;;7.20;1.50;;;;;;;14.63;43.44;99910.63;1087691;54;20034;-84
2023/06/04 03:18:56;;;;;;;3.40;1.30;;;;;;;14.61;43.39;99907.25;1087728;46;20026;-84
2023/06/04 03:20:00;;;;;;;5.03;1.40;;;;;;;14.57;43.45;99913.16;1087566;54;20022;-83
2023/06/04 03:21:01;;;;;;;3.05;1.25;;;;;;;14.59;43.50;99916.53;1087468;47;20421;-82
2023/06/04 03:22:07;;;;;;;5.63;1.63;;;;;;;14.60;43.60;99919.03;1087580;54;20038;-80
2023/06/04 03:23:08;;;;;;;5.13;1.42;;;;;;;14.58;43.54;99923.78;1087757;54;20089;-82
2023/06/04 03:24:12;;;;;;;4.53;1.25;;;;;;;14.58;43.40;99925.59;1087748;47;20034;-83
2023/06/04 03:25:14;;;;;;;3.70;1.60;;;;;;;14.65;43.34;99927.44;1088054;47;20030;-84
2023/06/04 03:26:18;;;;;;;3.25;1.25;;;;;;;14.72;43.44;99927.63;1087848;54;20086;-83
2023/06/04 03:27:22;;;;;;;5.03;1.20;;;;;;;14.66;43.33;99930.94;1088070;47;20034;-85
2023/06/04 03:28:26;;;;;;;3.97;1.73;;;;;;;14.68;43.34;99928.97;1087860;47;20026;-82
2023/06/04 03:29:27;;;;;;;3.67;1.50;;;;;;;14.67;42.90;99935.34;1087789;47;20047;-81
2023/06/04 03:30:31;;;;;;;3.92;1.50;;;;;;;14.72;42.95;99933.00;1088034;47;20030;-85
2023/06/04 03:31:37;;;;;;;3.35;1.30;;;;;;;14.71;42.78;99936.69;1087824;47;20057;-83
2023/06/04 03:32:43;;;;;;;6.63;1.67;;;;;;;14.61;43.26;99936.03;1087770;47;20037;-84
2023/06/04 03:33:44;;;;;;;6.68;2.10;;;;;;;14.69;42.93;99935.19;1087998;46;20045;-84
2023/06/04 03:34:48;;;;;;;3.50;1.50;;;;;;;14.72;42.51;99938.38;1087646;47;20037;-85
2023/06/04 03:35:50;;;;;;;3.55;1.63;;;;;;;14.62;42.82;99938.53;1087768;47;20042;-84
2023/06/04 03:36:54;;;;;;;5.70;1.73;;;;;;;14.72;42.67;99938.38;1087593;47;20050;-79
2023/06/04 03:37:55;;;;;;;3.58;1.77;;;;;;;14.55;42.86;99936.72;1087790;54;20104;-85
2023/06/04 03:38:58;;;;;;;7.30;1.70;;;;;;;14.73;42.70;99940.06;1087731;47;20030;-84
2023/06/04 03:40:00;;;;;;;3.58;1.33;;;;;;;14.88;42.19;99928.53;1087652;54;20065;-84
2023/06/04 03:41:04;;;;;;;5.47;1.67;;;;;;;14.86;42.35;99933.25;1087680;47;20030;-82
2023/06/04 03:42:05;;;;;;;5.20;1.50;;;;;;;14.92;42.12;99938.78;1087692;39;20728;-81
2023/06/04 03:43:12;;;;;;;3.85;1.30;;;;;;;14.87;41.89;99935.78;1087426;47;20061;-81
2023/06/04 03:44:14;;;;;;;4.25;1.30;;;;;;;14.76;42.22;99938.84;1087286;47;20044;-85
2023/06/04 03:45:19;;;;;;;4.55;1.38;;;;;;;14.72;42.08;99938.38;1087249;54;20057;-83
2023/06/04 03:46:21;;;;;;;3.75;1.00;;;;;;;14.70;42.55;99935.00;1087167;47;20026;-81
2023/06/04 03:47:25;;;;;;;4.45;1.30;;;;;;;14.71;42.40;99939.38;1087335;47;20031;-83
2023/06/04 03:48:27;;;;;;;3.53;1.20;;;;;;;14.76;42.04;99936.16;1087081;54;20022;-85
2023/06/04 03:49:31;;;;;;;4.15;1.30;;;;;;;14.73;42.14;99939.19;1087763;47;20030;-84
2023/06/04 03:50:33;;;;;;;4.15;1.13;;;;;;;14.75;42.26;99943.38;1087948;47;20041;-84
2023/06/04 03:51:37;;;;;;;4.00;1.50;;;;;;;14.70;42.33;99940.41;1087556;54;20084;-82
2023/06/04 03:52:39;;;;;;;5.53;2.65;;;;;;;14.79;42.25;99949.25;1087490;47;20033;-84
2023/06/04 03:53:44;;;;;;;2.95;1.30;;;;;;;14.91;41.83;99942.47;1087975;47;20404;-84
2023/06/04 03:54:46;;;;;;;3.25;1.20;;;;;;;14.90;41.97;99945.34;1087808;47;20026;-85
2023/06/04 03:55:50;;;;;;;4.95;1.40;;;;;;;14.93;42.11;99955.75;1087920;47;20049;-85
2023/06/04 03:56:52;;;;;;;3.88;1.20;;;;;;;14.80;42.00;99943.72;1087287;47;20029;-85
2023/06/04 03:57:56;;;;;;;2.80;1.10;;;;;;;14.95;41.79;99957.28;1087785;54;20022;-86
2023/06/04 03:59:01;;;;;;;3.50;1.42;;;;;;;14.98;41.86;99956.06;1087887;47;20026;-84
2023/06/04 04:00:06;;;;;;;3.55;1.35;;;;;;;14.99;41.69;99949.69;1087607;47;20069;-84
2023/06/04 04:01:14;;;;;;;5.45;1.42;;;;;;;14.94;41.92;99957.44;1087523;54;20027;-83
2023/06/04 04:02:19;;;;;;;3.38;1.42;;;;;;;14.98;41.86;99950.69;1087707;54;20035;-84
2023/06/04 04:03:21;;;;;;;3.90;1.20;;;;;;;14.77;42.17;99946.75;1087102;47;20746;-83
2023/06/04 04:04:25;;;;;;;3.03;1.10;;;;;;;14.77;42.22;99952.13;1086824;47;20022;-80
2023/06/04 04:05:27;;;;;;;2.92;0.82;;;;;;;14.76;42.36;99950.44;1086390;47;20038;-85
2023/06/04 04:06:32;;;;;;;3.90;1.08;;;;;;;14.74;42.21;99957.84;1087107;39;20422;-81
2023/06/04 04:07:33;;;;;;;3.67;1.52;;;;;;;14.65;42.54;99953.47;1086301;47;20029;-78
2023/06/04 04:08:42;;;;;;;3.28;1.33;;;;;;;14.65;42.62;99956.16;1086659;47;20038;-83
2023/06/04 04:09:44;;;;;;;5.43;1.20;;;;;;;14.62;42.60;99948.47;1087688;39;20299;-83
2023/06/04 04:10:48;;;;;;;3.20;1.20;;;;;;;14.65;42.19;99959.72;1087419;54;20034;-84
2023/06/04 04:11:50;;;;;;;3.22;1.30;;;;;;;14.62;42.58;99962.75;1087436;54;20070;-83
2023/06/04 04:12:54;;;;;;;5.18;1.58;;;;;;;14.71;42.24;99962.75;1087059;54;20031;-82
2023/06/04 04:13:57;;;;;;;3.38;1.33;;;;;;;14.77;42.03;99962.91;1087636;39;20582;-85
2023/06/04 04:15:04;;;;;;;3.67;1.25;;;;;;;14.80;42.03;99959.88;1087482;47;20027;-83
2023/06/04 04:16:06;;;;;;;3.53;1.17;;;;;;;14.79;42.28;99954.63;1087364;46;20698;-83
2023/06/04 04:17:10;;;;;;;3.95;1.67;;;;;;;14.77;42.45;99960.19;1087339;47;20065;-82
2023/06/04 04:18:11;;;;;;;3.35;1.20;;;;;;;14.75;42.26;99962.22;1087206;47;20030;-84
2023/06/04 04:19:16;;;;;;;3.72;1.13;;;;;;;14.79;42.14;99966.25;1087144;54;20049;-84
2023/06/04 04:20:18;;;;;;;3.92;1.50;;;;;;;14.73;42.31;99960.72;1087495;54;20056;-84
2023/06/04 04:21:28;;;;;;;4.43;0.90;;;;;;;14.77;42.12;99956.69;1087206;54;20060;-83
2023/06/04 04:22:29;;;;;;;2.58;0.90;;;;;;;14.78;42.02;99955.69;1087301;54;20053;-83
2023/06/04 04:23:34;;;;;;;4.18;1.40;;;;;;;14.81;42.32;99958.84;1087381;54;20026;-82
2023/06/04 04:24:37;;;;;;;3.33;1.33;;;;;;;14.80;42.05;99962.56;1087053;47;20046;-81
2023/06/04 04:25:41;;;;;;;4.65;1.20;;;;;;;14.82;42.25;99955.16;1086661;54;20084;-83
2023/06/04 04:26:43;;;;;;;3.72;1.20;;;;;;;14.83;41.92;99964.06;1087105;54;20046;-84
2023/06/04 04:27:48;;;;;;;2.70;1.00;;;;;;;14.86;42.18;99961.03;1087380;54;20034;-83
2023/06/04 04:28:52;;;;;;;3.25;1.30;;;;;;;14.81;42.30;99964.22;1086787;47;20026;-84
2023/06/04 04:29:59;;;;;;;4.35;1.08;;;;;;;14.85;41.91;99963.88;1087134;54;20042;-83
2023/06/04 04:31:08;;;;;;;3.10;1.10;;;;;;;14.69;42.44;99959.41;1087267;39;20615;-82
2023/06/04 04:32:10;;;;;;;2.72;1.10;;;;;;;14.59;42.80;99962.25;1087652;39;20539;-81
2023/06/04 04:33:17;;;;;;;3.85;1.30;;;;;;;14.64;42.49;99965.28;1086588;54;20035;-83
2023/06/04 04:34:20;;;;;;;2.90;1.20;;;;;;;14.75;42.43;99964.91;1086875;46;20023;-84
2023/06/04 04:35:25;;;;;;;4.45;1.30;;;;;;;14.84;41.98;99972.94;1086245;47;20032;-83
2023/06/04 04:36:32;;;;;;;3.30;1.30;;;;;;;14.81;42.32;99964.22;1087062;47;20379;-84
2023/06/04 04:37:38;;;;;;;2.95;0.90;;;;;;;14.95;41.71;99969.88;1086800;47;20151;-81
2023/06/04 04:38:40;;;;;;;3.72;1.10;;;;;;;15.00;41.73;99972.03;1087122;47;20049;-83
2023/06/04 04:39:44;;;;;;;3.30;1.33;;;;;;;14.99;41.73;99968.53;1086989;51;20030;-81
2023/06/04 04:40:47;;;;;;;2.90;1.20;;;;;;;14.94;41.85;99968.19;1086337;47;20034;-81
2023/06/04 04:41:52;;;;;;;5.10;1.10;;;;;;;15.07;41.72;99965.78;1086664;47;20037;-81
2023/06/04 04:42:53;;;;;;;4.72;1.38;;;;;;;15.14;41.68;99971.31;1086706;47;20094;-82
2023/06/04 04:44:07;;;;;;;3.58;1.20;;;;;;;15.20;41.57;99967.91;1086464;47;20103;-80
2023/06/04 04:45:10;;;;;;;2.78;1.02;;;;;;;15.29;41.50;99972.22;1086996;47;20057;-82
2023/06/04 04:46:17;;;;;;;2.85;1.20;;;;;;;15.07;41.77;99971.19;1086942;47;20125;-84
2023/06/04 04:47:19;;;;;;;3.70;1.13;;;;;;;15.06;41.88;99977.56;1086899;47;20867;-81
2023/06/04 04:48:23;;;;;;;3.10;1.23;;;;;;;15.09;41.83;99976.38;1086855;54;20026;-85
2023/06/04 04:49:24;;;;;;;4.07;1.52;;;;;;;15.17;41.95;99972.81;1087085;54;20765;-81
2023/06/04 04:50:28;;;;;;;4.90;1.30;;;;;;;15.18;41.60;99971.78;1086933;47;20042;-81
2023/06/04 04:51:32;;;;;;;5.25;1.48;;;;;;;14.99;42.17;99973.91;1085628;47;20037;-81
2023/06/04 04:52:36;;;;;;;2.88;1.00;;;;;;;15.06;41.77;99974.88;1087170;47;20418;-84
2023/06/04 04:53:37;;;;;;;3.08;1.05;;;;;;;15.24;41.49;99971.09;1087186;46;20022;-80
2023/06/04 04:54:41;;;;;;;4.03;1.30;;;;;;;15.19;41.57;99971.59;1086874;47;20026;-82
2023/06/04 04:55:42;;;;;;;3.25;1.23;;;;;;;15.25;41.30;99967.38;1090115;39;21019;-81
2023/06/04 04:56:46;;;;;;;6.63;1.70;;;;;;;15.03;41.88;99974.41;1086798;47;20042;-82
2023/06/04 04:57:47;;;;;;;2.80;1.20;;;;;;;15.03;41.60;99963.63;1086757;47;20072;-81
2023/06/04 04:58:52;;;;;;;3.30;1.15;;;;;;;15.00;41.71;99963.97;1087222;54;20061;-83
2023/06/04 04:59:53;;;;;;;3.33;1.27;;;;;;;15.06;41.74;99972.19;1087262;47;20026;-80